Time;durP1;ratioP1;P1;durP2;ratioP2;P2;SDS_P1;SDS_P2;PMS_P1;PMS_P2;Temp;Humidity;BMP_temperature;BMP_pressure;BME280_temperature;BME280_humidity;BME280_pressure;Samples;Min_cycle;Max_cycle;Signal;HPM_P1;HPM_P2
2022/08/25 00:02:14;;;;;;;26.13;7.78;;;;;;;24.66;71.76;96612.53;5024600;28;20064;-66
2022/08/25 00:04:43;;;;;;;30.52;7.75;;;;;;;24.34;72.04;96576.38;5024574;28;20052;-66
2022/08/25 00:07:19;;;;;;;24.90;8.98;;;;;;;24.61;72.21;96603.88;5023224;28;20648;-66
2022/08/25 00:09:46;;;;;;;21.15;8.27;;;;;;;24.70;72.40;96607.53;5024577;28;20057;-68
2022/08/25 00:12:12;;;;;;;23.13;8.27;;;;;;;24.52;72.81;96612.38;5024710;28;20119;-67
2022/08/25 00:14:39;;;;;;;28.80;8.57;;;;;;;24.49;72.79;96596.31;5022919;28;20053;-66
2022/08/25 00:17:06;;;;;;;39.92;10.23;;;;;;;24.47;73.24;96591.13;5024726;28;20049;-67
2022/08/25 00:19:36;;;;;;;20.77;9.05;;;;;;;23.99;73.44;96548.81;5024569;28;20075;-66
2022/08/25 00:22:04;;;;;;;26.83;7.88;;;;;;;24.42;73.36;96599.47;5022493;28;20450;-66
2022/08/25 00:24:30;;;;;;;22.02;8.23;;;;;;;24.44;72.63;96591.31;5024107;28;20056;-67
2022/08/25 00:26:58;;;;;;;28.35;10.07;;;;;;;24.04;72.66;96526.34;5024541;28;20065;-66
2022/08/25 00:29:26;;;;;;;26.45;9.50;;;;;;;24.32;72.79;96570.38;5024100;28;20523;-66
2022/08/25 00:31:54;;;;;;;27.00;9.70;;;;;;;24.40;72.75;96588.63;5024000;28;20062;-66
2022/08/25 00:34:28;;;;;;;22.65;9.75;;;;;;;24.38;72.73;96579.81;5026465;28;20523;-67
2022/08/25 00:36:55;;;;;;;25.73;11.30;;;;;;;24.35;73.27;96577.94;5018730;28;20129;-66
2022/08/25 00:39:24;;;;;;;27.23;10.32;;;;;;;24.32;73.52;96587.38;5008374;28;20057;-67
2022/08/25 00:41:52;;;;;;;22.00;10.18;;;;;;;24.07;73.52;96544.44;5006659;28;20503;-66
2022/08/25 00:44:19;;;;;;;30.17;12.23;;;;;;;24.30;73.26;96578.56;5007739;28;20050;-66
2022/08/25 00:46:49;;;;;;;23.98;10.23;;;;;;;24.21;73.40;96564.41;5006542;28;20749;-66
2022/08/25 00:49:35;;;;;;;18.65;9.93;;;;;;;24.38;73.09;96571.31;5008279;28;20049;-66
2022/08/25 00:52:08;;;;;;;26.10;10.35;;;;;;;24.30;73.98;96572.09;5007924;28;20054;-66
2022/08/25 00:54:48;;;;;;;26.52;11.40;;;;;;;24.28;73.83;96580.28;5007861;28;20057;-66
2022/08/25 00:57:19;;;;;;;29.90;12.45;;;;;;;24.23;74.22;96573.22;5007822;28;20057;-66
2022/08/25 01:00:01;;;;;;;26.52;11.40;;;;;;;24.33;73.38;96571.94;5007846;28;20132;-67
2022/08/25 01:02:27;;;;;;;26.88;11.80;;;;;;;24.26;73.53;96575.09;5007394;28;20053;-66
2022/08/25 01:04:54;;;;;;;38.35;13.88;;;;;;;24.25;73.61;96582.00;5007597;28;20057;-66
2022/08/25 01:07:22;;;;;;;31.02;12.85;;;;;;;24.16;74.15;96562.19;5007400;28;20053;-66
2022/08/25 01:09:52;;;;;;;27.60;12.02;;;;;;;24.21;74.36;96572.91;5007256;28;20054;-66
2022/08/25 01:12:19;;;;;;;25.48;12.45;;;;;;;23.89;74.87;96536.69;5006107;28;20053;-66
2022/08/25 01:14:47;;;;;;;31.42;12.10;;;;;;;24.23;75.36;96576.06;5007628;28;20050;-68
2022/08/25 01:17:14;;;;;;;32.72;12.13;;;;;;;24.12;74.59;96572.91;5007557;28;20053;-66
2022/08/25 01:19:41;;;;;;;32.70;11.77;;;;;;;24.14;74.72;96580.91;5007326;28;20077;-67
2022/08/25 01:22:10;;;;;;;31.98;11.40;;;;;;;23.99;76.09;96580.75;5007633;28;20085;-66
2022/08/25 01:24:41;;;;;;;30.67;13.00;;;;;;;23.37;76.88;96534.06;5007605;28;20058;-68
2022/08/25 01:27:09;;;;;;;25.52;10.40;;;;;;;23.59;77.49;96574.34;5007365;28;20050;-67
2022/08/25 01:29:37;;;;;;;33.15;11.15;;;;;;;23.71;77.55;96593.25;5007293;28;20108;-67
2022/08/25 01:32:08;;;;;;;30.38;10.35;;;;;;;23.65;78.12;96586.59;5007178;28;20050;-67
2022/08/25 01:34:40;;;;;;;27.88;10.02;;;;;;;23.57;78.35;96574.00;5005599;28;20061;-67
2022/08/25 01:37:09;;;;;;;25.77;9.70;;;;;;;23.67;78.82;96584.09;5016119;28;20049;-67
2022/08/25 01:39:40;;;;;;;25.40;7.88;;;;;;;23.53;79.76;96570.56;5026943;28;20072;-67
2022/08/25 01:42:08;;;;;;;24.58;8.18;;;;;;;23.42;80.76;96581.50;5024990;28;20061;-66
2022/08/25 01:44:38;;;;;;;22.92;8.48;;;;;;;23.13;81.67;96555.59;5026480;28;20060;-67
2022/08/25 01:47:06;;;;;;;29.42;7.65;;;;;;;23.12;81.86;96579.47;5026655;28;20579;-66
2022/08/25 01:49:33;;;;;;;21.00;8.07;;;;;;;23.12;82.67;96577.44;5026646;28;20049;-66
2022/08/25 01:52:14;;;;;;;21.20;8.15;;;;;;;23.03;83.60;96571.72;5026755;28;20061;-66
2022/08/25 01:54:41;;;;;;;26.52;8.35;;;;;;;23.00;83.72;96567.00;5026879;28;20136;-66
2022/08/25 01:57:08;;;;;;;29.35;8.68;;;;;;;22.63;84.19;96513.63;5025971;28;20057;-66
2022/08/25 01:59:34;;;;;;;22.65;7.88;;;;;;;22.96;85.13;96565.56;5026411;28;20065;-66
2022/08/25 02:02:01;;;;;;;24.98;8.75;;;;;;;22.93;84.96;96560.84;5026418;28;20057;-66
2022/08/25 02:04:31;;;;;;;20.30;8.68;;;;;;;22.89;85.79;96560.22;5026524;28;20431;-66
2022/08/25 02:07:04;;;;;;;33.25;10.10;;;;;;;22.75;87.29;96561.53;5024635;28;20057;-67
2022/08/25 02:09:31;;;;;;;20.20;9.90;;;;;;;22.37;88.32;96508.13;5026131;28;20080;-67
2022/08/25 02:11:58;;;;;;;23.58;9.50;;;;;;;22.43;89.04;96574.00;5024811;28;20045;-67
2022/08/25 02:14:25;;;;;;;24.02;9.55;;;;;;;21.97;90.60;96510.00;5025891;28;20519;-66
2022/08/25 02:16:53;;;;;;;27.52;10.32;;;;;;;22.11;91.00;96546.16;5024794;28;20060;-67
2022/08/25 02:19:21;;;;;;;38.03;10.43;;;;;;;21.98;92.61;96556.72;5024480;28;20053;-67
2022/08/25 02:21:48;;;;;;;29.10;10.82;;;;;;;21.91;93.16;96559.78;5024242;28;20049;-66
2022/08/25 02:24:15;;;;;;;26.67;9.45;;;;;;;21.92;93.58;96550.09;5025787;28;20053;-66
2022/08/25 02:26:43;;;;;;;21.48;9.40;;;;;;;21.31;94.74;96510.28;5025672;28;20049;-66
2022/08/25 02:29:11;;;;;;;19.75;8.77;;;;;;;21.75;95.14;96556.31;5024644;28;20103;-65
2022/08/25 02:31:39;;;;;;;20.75;9.90;;;;;;;21.58;96.19;96552.06;5025456;28;20057;-67
2022/08/25 02:34:08;;;;;;;30.65;10.32;;;;;;;21.67;95.93;96555.00;5025463;28;20054;-67
2022/08/25 02:36:37;;;;;;;32.13;11.70;;;;;;;21.55;96.90;96553.78;5019727;28;20045;-65
2022/08/25 02:39:07;;;;;;;26.50;10.73;;;;;;;21.56;96.99;96560.97;5005970;28;20050;-65
2022/08/25 02:41:34;;;;;;;38.92;14.77;;;;;;;21.32;96.51;96525.97;5004465;28;20049;-66
2022/08/25 02:44:02;;;;;;;41.60;17.98;;;;;;;21.61;96.39;96545.53;5005915;28;20433;-67
2022/08/25 02:46:29;;;;;;;35.53;14.93;;;;;;;21.59;96.28;96554.41;5005753;28;20053;-66
2022/08/25 02:48:56;;;;;;;31.25;13.95;;;;;;;21.45;96.00;96554.13;5005960;28;20045;-67
2022/08/25 02:51:27;;;;;;;27.70;12.18;;;;;;;21.49;95.90;96544.31;5004327;28;20053;-66
2022/08/25 02:53:55;;;;;;;27.42;11.50;;;;;;;21.51;96.62;96547.47;5006213;28;20061;-68
2022/08/25 02:56:23;;;;;;;26.48;11.85;;;;;;;21.19;95.07;96474.50;5006210;28;20062;-66
2022/08/25 02:58:50;;;;;;;29.33;10.77;;;;;;;21.60;92.90;96539.09;5005415;28;20504;-67
2022/08/25 03:01:17;;;;;;;25.40;9.48;;;;;;;21.67;92.97;96544.47;5004201;28;20080;-67
2022/08/25 03:03:46;;;;;;;22.33;9.13;;;;;;;21.69;93.17;96536.38;5005696;28;20666;-66
2022/08/25 03:06:15;;;;;;;23.25;10.40;;;;;;;21.59;93.85;96531.09;5005518;28;20046;-67
2022/08/25 03:08:42;;;;;;;24.20;9.88;;;;;;;21.57;94.12;96531.56;5005337;28;20061;-67
2022/08/25 03:11:10;;;;;;;31.42;8.82;;;;;;;21.06;93.79;96454.00;5005382;28;20045;-67
2022/08/25 03:13:37;;;;;;;33.60;9.32;;;;;;;21.53;94.07;96533.69;5005100;28;20073;-66
2022/08/25 03:16:06;;;;;;;20.05;7.40;;;;;;;21.47;94.43;96529.09;5005446;28;20060;-67
2022/08/25 03:18:38;;;;;;;33.47;9.75;;;;;;;21.34;94.81;96519.88;5003934;28;20061;-67
2022/08/25 03:21:06;;;;;;;24.00;8.38;;;;;;;21.43;95.22;96534.88;5005281;28;20049;-66
2022/08/25 03:23:32;;;;;;;28.42;9.30;;;;;;;21.40;95.08;96529.34;5004851;28;20119;-66
2022/08/25 03:28:46;;;;;;;32.15;9.55;;;;;;;21.27;96.49;96535.00;5005235;28;20058;-67
2022/08/25 03:31:12;;;;;;;22.85;9.77;;;;;;;21.31;96.99;96518.75;5003757;28;20050;-68
2022/08/25 03:33:39;;;;;;;25.65;10.82;;;;;;;20.90;96.98;96477.44;5004713;28;20046;-66
2022/08/25 03:36:07;;;;;;;29.83;10.18;;;;;;;21.06;97.08;96510.34;5006520;28;20049;-67
2022/08/25 03:38:36;;;;;;;33.20;10.18;;;;;;;21.12;98.13;96525.41;5023166;28;20052;-67
2022/08/25 03:41:34;;;;;;;26.27;9.68;;;;;;;21.16;98.13;96509.19;5024720;28;20067;-66
2022/08/25 03:44:03;;;;;;;27.15;9.55;;;;;;;20.55;99.71;96463.72;5023535;28;20061;-67
2022/08/25 03:46:50;;;;;;;26.45;10.60;;;;;;;20.93;100.00;96512.31;5024645;28;20517;-67
2022/08/25 03:49:21;;;;;;;30.33;10.18;;;;;;;18.97;99.08;96193.81;5024878;28;20494;-67
2022/08/25 03:51:51;;;;;;;28.10;9.13;;;;;;;21.09;99.24;96503.78;5024731;28;20053;-67
2022/08/25 03:54:21;;;;;;;25.13;11.52;;;;;;;21.09;99.09;96509.44;5024434;28;20440;-67
2022/08/25 03:56:48;;;;;;;25.80;11.32;;;;;;;21.09;100.00;96509.44;5024721;28;20076;-67
2022/08/25 03:59:15;;;;;;;30.38;11.27;;;;;;;20.57;97.90;96433.06;5023360;28;20046;-67
2022/08/25 04:01:43;;;;;;;28.08;11.60;;;;;;;20.89;98.52;96477.88;5024334;28;20049;-66
2022/08/25 04:04:13;;;;;;;35.15;10.88;;;;;;;21.22;97.46;96517.84;5024533;28;20058;-67
2022/08/25 04:06:41;;;;;;;28.13;10.60;;;;;;;20.99;96.65;96468.34;5024379;28;20057;-66
2022/08/25 04:09:08;;;;;;;26.48;10.73;;;;;;;20.50;97.66;96467.06;5026673;28;20057;-66
2022/08/25 04:11:36;;;;;;;33.53;11.05;;;;;;;21.09;97.16;96515.06;5028661;28;20049;-67
2022/08/25 04:14:04;;;;;;;32.35;11.82;;;;;;;21.15;96.32;96518.88;5028443;28;20046;-67
2022/08/25 04:16:33;;;;;;;27.63;11.82;;;;;;;21.15;96.29;96518.88;5028479;28;20057;-66
2022/08/25 04:19:04;;;;;;;37.15;11.55;;;;;;;21.28;96.98;96511.19;5028042;28;20162;-66
2022/08/25 04:21:31;;;;;;;23.15;10.43;;;;;;;21.05;95.48;96457.28;5028341;28;20049;-66
2022/08/25 04:23:58;;;;;;;24.67;10.65;;;;;;;21.43;94.82;96523.59;5026486;28;20057;-66
2022/08/25 04:26:28;;;;;;;28.80;10.23;;;;;;;21.64;93.79;96514.38;5026662;28;20426;-66
2022/08/25 04:28:57;;;;;;;39.70;12.90;;;;;;;21.89;91.39;96528.44;5026866;28;20053;-66
2022/08/25 04:31:23;;;;;;;52.90;15.45;;;;;;;21.80;91.88;96519.91;5027780;28;20057;-65
2022/08/25 04:33:50;;;;;;;38.10;14.73;;;;;;;21.94;91.02;96525.03;5026530;28;20136;-67
2022/08/25 04:36:18;;;;;;;42.15;12.57;;;;;;;21.64;92.79;96534.13;5025313;28;20064;-68
2022/08/25 04:38:47;;;;;;;28.48;10.10;;;;;;;22.07;88.77;96524.97;5006969;28;20058;-67
2022/08/25 04:41:15;;;;;;;37.92;12.30;;;;;;;22.43;88.46;96528.84;5008107;28;20077;-67
2022/08/25 04:43:43;;;;;;;27.55;10.43;;;;;;;22.38;86.58;96526.63;5006581;28;20061;-67
2022/08/25 04:46:14;;;;;;;35.20;11.07;;;;;;;22.60;86.44;96500.44;5008069;28;20061;-67
2022/08/25 04:48:46;;;;;;;39.47;9.93;;;;;;;22.42;87.66;96513.16;5008108;28;20578;-68
2022/08/25 04:51:16;;;;;;;35.58;10.93;;;;;;;22.82;84.08;96521.75;5006344;28;20054;-67
2022/08/25 04:53:43;;;;;;;31.75;8.52;;;;;;;22.85;81.03;96511.53;5006165;28;20516;-67
2022/08/25 04:56:15;;;;;;;28.35;9.13;;;;;;;22.89;81.32;96540.44;5008132;28;20065;-68
2022/08/25 04:58:42;;;;;;;26.70;8.80;;;;;;;23.03;84.15;96525.75;5006575;28;20053;-67
2022/08/25 05:01:14;;;;;;;34.00;9.15;;;;;;;20.98;84.03;96170.28;5006379;28;20073;-65
2022/08/25 05:03:42;;;;;;;29.13;9.30;;;;;;;21.23;82.91;96210.34;5007461;28;20145;-67
2022/08/25 05:06:09;;;;;;;23.55;8.05;;;;;;;23.40;82.13;96528.28;5006000;28;20308;-67
2022/08/25 05:08:41;;;;;;;30.23;8.80;;;;;;;23.56;80.45;96524.38;5006157;28;20890;-67
2022/08/25 05:11:13;;;;;;;20.13;7.97;;;;;;;23.47;78.91;96527.19;5019366;28;20131;-67
2022/08/25 05:13:42;;;;;;;24.20;7.75;;;;;;;23.58;78.96;96528.28;5025553;28;20057;-65
2022/08/25 05:16:11;;;;;;;22.23;7.88;;;;;;;23.41;79.19;96500.78;5027210;28;20148;-68
2022/08/25 05:18:38;;;;;;;17.20;7.43;;;;;;;23.55;78.40;96494.53;5025598;28;20061;-66
2022/08/25 05:21:16;;;;;;;21.17;8.05;;;;;;;23.66;78.22;96506.19;5026168;28;20057;-65
2022/08/25 05:23:43;;;;;;;24.13;8.40;;;;;;;23.92;76.33;96502.56;5025497;28;20065;-67
2022/08/25 05:26:14;;;;;;;24.95;8.13;;;;;;;24.01;76.03;96513.16;5025428;28;20507;-67
2022/08/25 05:28:47;;;;;;;31.15;7.72;;;;;;;24.06;73.28;96480.59;5027110;28;20092;-67
2022/08/25 05:31:15;;;;;;;23.02;8.15;;;;;;;24.50;73.17;96502.38;5025167;28;20057;-67
2022/08/25 05:33:42;;;;;;;29.27;8.35;;;;;;;24.84;71.71;96504.84;5025691;28;20049;-67
2022/08/25 05:36:11;;;;;;;25.33;7.20;;;;;;;24.86;71.87;96502.34;5025066;28;20061;-67
2022/08/25 05:38:40;;;;;;;31.77;7.47;;;;;;;24.92;72.09;96482.63;5026465;28;20061;-68
2022/08/25 05:41:10;;;;;;;26.27;8.52;;;;;;;25.12;70.12;96503.47;5025245;28;20088;-67
2022/08/25 05:43:39;;;;;;;33.63;8.55;;;;;;;25.16;72.33;96500.47;5026658;28;20055;-67
2022/08/25 05:46:07;;;;;;;32.67;7.57;;;;;;;25.35;69.52;96506.88;5026804;28;20056;-67
2022/08/25 05:48:34;;;;;;;32.20;8.50;;;;;;;25.05;69.37;96423.69;5026446;28;20052;-67
2022/08/25 05:51:04;;;;;;;31.58;8.43;;;;;;;25.61;67.41;96479.63;5024976;28;20053;-66
2022/08/25 05:53:32;;;;;;;38.50;9.05;;;;;;;25.68;65.84;96459.38;5026189;28;20057;-67
2022/08/25 05:56:00;;;;;;;26.38;7.70;;;;;;;26.04;65.71;96453.44;5026242;28;20055;-65
2022/08/25 05:58:28;;;;;;;34.45;7.80;;;;;;;26.20;62.13;96461.50;5026256;28;20045;-65
2022/08/25 06:00:56;;;;;;;38.90;7.88;;;;;;;26.32;59.72;96457.59;5026337;28;20053;-65
2022/08/25 06:03:23;;;;;;;34.15;7.78;;;;;;;26.85;57.92;96483.88;5026269;28;20053;-66
2022/08/25 06:05:50;;;;;;;46.78;8.50;;;;;;;26.87;57.49;96475.66;5025794;28;20053;-67
2022/08/25 06:08:18;;;;;;;34.60;8.15;;;;;;;26.84;57.53;96470.97;5024663;28;20064;-67
2022/08/25 06:10:50;;;;;;;38.00;7.85;;;;;;;27.00;57.32;96478.94;5024708;28;20119;-67
2022/08/25 06:13:17;;;;;;;30.10;8.82;;;;;;;26.96;57.59;96484.06;5026215;28;20053;-68
2022/08/25 06:16:01;;;;;;;36.20;7.47;;;;;;;26.13;58.21;96342.63;5020873;28;20080;-60
2022/08/25 06:18:28;;;;;;;36.40;11.07;;;;;;;27.29;57.54;96478.94;5024438;28;20115;-66
2022/08/25 06:20:55;;;;;;;34.55;8.50;;;;;;;27.68;56.81;96477.41;5025430;28;20526;-58
2022/08/25 06:23:21;;;;;;;28.55;7.60;;;;;;;27.62;54.55;96444.47;5022395;28;20049;-67
2022/08/25 06:25:50;;;;;;;45.05;9.60;;;;;;;27.32;53.23;96429.59;5023599;28;20052;-59
2022/08/25 06:28:17;;;;;;;40.15;8.13;;;;;;;27.47;52.11;96481.53;5025482;28;20057;-64
2022/08/25 06:30:44;;;;;;;39.13;9.02;;;;;;;26.85;51.81;96358.81;5025391;28;20053;-61
2022/08/25 06:33:11;;;;;;;35.97;8.48;;;;;;;26.70;51.12;96414.88;5022427;28;20049;-64
2022/08/25 06:35:41;;;;;;;39.10;8.02;;;;;;;27.02;51.14;96450.81;5004454;28;20057;-62
2022/08/25 06:38:08;;;;;;;34.17;7.68;;;;;;;26.47;51.11;96379.63;5013800;28;20413;-62
2022/08/25 06:40:34;;;;;;;52.30;7.15;;;;;;;26.17;49.55;96365.94;5024158;28;20428;-66
2022/08/25 06:43:05;;;;;;;42.38;9.18;;;;;;;27.25;50.21;96466.94;5023859;28;20057;-60
2022/08/25 06:45:32;;;;;;;49.80;8.23;;;;;;;27.32;48.90;96468.63;5023900;28;20076;-64
2022/08/25 06:47:58;;;;;;;48.90;8.13;;;;;;;27.41;49.89;96462.81;5023847;28;20523;-64
2022/08/25 06:50:25;;;;;;;49.45;8.43;;;;;;;27.36;48.50;96421.59;5025280;28;20050;-64
2022/08/25 06:52:52;;;;;;;37.88;7.55;;;;;;;27.89;48.50;96453.41;5025440;28;20057;-61
2022/08/25 06:55:19;;;;;;;36.95;7.68;;;;;;;27.22;48.90;96428.09;5024913;28;20119;-57
2022/08/25 06:57:45;;;;;;;26.95;6.00;;;;;;;26.86;47.27;96410.78;5024838;28;20685;-60
2022/08/25 07:00:13;;;;;;;19.33;5.22;;;;;;;27.16;47.56;96469.91;5024984;28;20488;-61
2022/08/25 07:02:41;;;;;;;31.73;6.80;;;;;;;26.72;49.81;96429.41;5025749;28;20056;-69
2022/08/25 07:05:08;;;;;;;39.83;8.85;;;;;;;24.75;50.12;96111.09;5024824;28;20088;-64
2022/08/25 07:07:39;;;;;;;40.78;7.32;;;;;;;27.19;50.73;96471.75;5024841;28;20053;-64
2022/08/25 07:10:10;;;;;;;25.55;6.20;;;;;;;26.32;50.07;96344.00;5023571;28;20057;-69
2022/08/25 07:12:37;;;;;;;31.50;8.65;;;;;;;26.67;50.46;96432.94;5023588;28;20068;-64
2022/08/25 07:15:05;;;;;;;42.10;7.82;;;;;;;26.52;48.84;96395.19;5025097;28;20056;-70
2022/08/25 07:17:48;;;;;;;45.45;8.60;;;;;;;26.93;49.45;96468.00;5024622;28;20061;-64
2022/08/25 07:20:16;;;;;;;28.85;7.05;;;;;;;26.53;49.59;96428.81;5020959;28;20046;-62
2022/08/25 07:22:45;;;;;;;34.05;7.07;;;;;;;25.90;50.76;96357.66;5023322;28;20053;-67
2022/08/25 07:25:11;;;;;;;27.95;6.10;;;;;;;26.68;50.39;96474.28;5024174;28;20427;-65
2022/08/25 07:27:38;;;;;;;32.90;5.50;;;;;;;26.33;49.50;96447.81;5024727;28;20049;-63
2022/08/25 07:30:08;;;;;;;38.97;7.78;;;;;;;26.66;50.90;96500.38;5023596;28;20498;-64
2022/08/25 07:32:37;;;;;;;39.90;7.82;;;;;;;26.68;49.35;96486.44;5022992;28;20521;-64
2022/08/25 07:35:14;;;;;;;50.13;7.63;;;;;;;26.00;47.86;96322.28;5023228;28;20171;-64
2022/08/25 07:37:47;;;;;;;32.42;7.57;;;;;;;27.06;48.07;96494.06;5022433;28;20050;-62
2022/08/25 07:40:21;;;;;;;38.22;6.63;;;;;;;26.22;48.33;96380.25;5024619;28;20103;-64
2022/08/25 07:42:50;;;;;;;36.45;7.20;;;;;;;26.81;47.99;96437.81;5002767;28;20542;-65
2022/08/25 07:45:18;;;;;;;43.10;8.70;;;;;;;26.41;47.71;96380.81;5011572;28;20060;-71
2022/08/25 07:47:47;;;;;;;40.10;7.63;;;;;;;27.60;46.21;96521.81;5021387;28;20060;-63
2022/08/25 07:50:17;;;;;;;52.13;7.68;;;;;;;27.81;46.69;96497.78;5024775;28;21269;-63
2022/08/25 07:52:45;;;;;;;44.15;8.70;;;;;;;27.77;47.48;96514.28;5023945;28;20057;-63
2022/08/25 07:55:26;;;;;;;35.78;7.95;;;;;;;27.69;46.62;96513.16;5023299;28;20041;-59
2022/08/25 07:57:55;;;;;;;37.45;7.95;;;;;;;27.82;45.84;96465.19;5023677;28;20045;-67
2022/08/25 08:00:26;;;;;;;44.10;8.27;;;;;;;28.09;45.67;96456.22;5023008;28;20049;-70
2022/08/25 08:02:54;;;;;;;37.85;6.70;;;;;;;28.30;45.08;96422.78;5003484;28;20050;-68
2022/08/25 08:05:21;;;;;;;43.80;7.10;;;;;;;28.85;45.61;96522.38;5005100;28;20069;-62
2022/08/25 08:07:50;;;;;;;41.30;6.25;;;;;;;28.34;45.74;96488.09;5022462;28;20496;-69
2022/08/25 08:10:17;;;;;;;32.47;7.15;;;;;;;27.44;46.04;96379.31;5023458;28;20049;-63
2022/08/25 08:13:03;;;;;;;39.42;6.88;;;;;;;28.43;47.23;96537.16;5025668;28;20138;-63
2022/08/25 08:15:33;;;;;;;25.02;6.38;;;;;;;28.35;47.30;96503.91;5024337;28;20487;-62
2022/08/25 08:18:00;;;;;;;28.63;6.32;;;;;;;28.46;47.63;96515.44;5004240;28;20108;-62
2022/08/25 08:20:32;;;;;;;27.60;6.25;;;;;;;27.01;47.46;96309.94;5023164;28;20061;-67
2022/08/25 08:23:09;;;;;;;33.15;6.80;;;;;;;28.77;48.02;96535.50;5022601;28;20136;-60
2022/08/25 08:25:36;;;;;;;29.30;7.28;;;;;;;28.13;47.26;96394.13;5023881;28;20045;-69
2022/08/25 08:28:02;;;;;;;28.67;6.40;;;;;;;28.76;46.89;96533.91;5024231;28;20050;-61
2022/08/25 08:30:33;;;;;;;35.67;7.93;;;;;;;28.91;47.32;96548.84;5024062;28;20148;-67
2022/08/25 08:33:00;;;;;;;35.90;7.28;;;;;;;27.90;48.12;96440.72;5022217;28;20060;-64
2022/08/25 08:35:41;;;;;;;37.25;6.93;;;;;;;28.75;47.29;96552.31;5022962;28;20085;-72
2022/08/25 08:38:11;;;;;;;29.88;6.90;;;;;;;27.84;47.85;96428.47;5022419;28;20555;-64
2022/08/25 08:44:44;;;;;;;24.83;6.15;;;;;;;28.32;49.38;96530.56;5023665;28;20099;-61
2022/08/25 08:47:55;;;;;;;26.42;7.60;;;;;;;28.67;48.18;96522.69;5024124;28;20061;-61
2022/08/25 08:50:37;;;;;;;29.17;6.50;;;;;;;28.28;49.69;96547.09;5008115;28;20053;-67
2022/08/25 08:53:08;;;;;;;31.77;7.40;;;;;;;28.28;49.89;96535.69;5014711;28;20046;-62
2022/08/25 08:55:45;;;;;;;40.17;7.60;;;;;;;28.17;49.57;96444.41;5006788;28;20057;-62
2022/08/25 08:58:27;;;;;;;32.47;7.88;;;;;;;28.42;49.21;96477.81;5015058;28;20057;-65
2022/08/25 09:00:57;;;;;;;34.05;8.68;;;;;;;28.75;48.56;96547.41;5026342;28;20057;-63
2022/08/25 09:03:40;;;;;;;38.63;6.78;;;;;;;28.26;49.56;96484.13;5024801;28;20083;-63
2022/08/25 09:06:12;;;;;;;32.88;6.07;;;;;;;28.48;49.43;96530.00;5026850;28;20076;-57
2022/08/25 09:08:43;;;;;;;35.28;6.97;;;;;;;28.39;48.87;96498.78;5027052;28;20053;-61
2022/08/25 09:11:16;;;;;;;34.47;7.45;;;;;;;28.66;49.63;96526.84;5026149;28;20061;-60
2022/08/25 09:14:09;;;;;;;25.20;6.65;;;;;;;28.66;49.47;96543.94;5041294;28;20523;-61
2022/08/25 09:16:54;;;;;;;28.98;6.35;;;;;;;28.30;49.75;96504.63;5026656;28;20107;-63
2022/08/25 09:20:00;;;;;;;31.48;7.45;;;;;;;28.64;49.38;96515.13;5024129;28;20061;-64
2022/08/25 09:22:46;;;;;;;39.55;8.60;;;;;;;27.59;49.92;96366.56;5007646;28;20049;-60
2022/08/25 09:25:29;;;;;;;29.25;6.20;;;;;;;28.44;50.24;96518.00;5005977;28;20049;-67
2022/08/25 09:28:20;;;;;;;38.33;7.55;;;;;;;28.60;47.43;96506.00;5005541;28;20050;-67
2022/08/25 09:30:58;;;;;;;35.38;6.30;;;;;;;28.69;48.46;96508.72;5005356;28;20050;-59
2022/08/25 09:33:28;;;;;;;32.08;6.07;;;;;;;28.60;48.11;96497.47;5007109;28;20595;-59
2022/08/25 09:35:55;;;;;;;36.15;7.70;;;;;;;28.73;48.16;96504.34;5006444;28;20066;-68
2022/08/25 09:38:25;;;;;;;17.08;5.88;;;;;;;28.28;49.04;96484.41;5011222;28;20041;-62
2022/08/25 09:40:56;;;;;;;33.45;7.47;;;;;;;28.44;49.66;96492.38;5026385;28;20049;-62
2022/08/25 09:43:51;;;;;;;23.38;7.10;;;;;;;28.11;48.93;96396.69;5026492;28;20084;-61
2022/08/25 09:46:27;;;;;;;24.00;6.80;;;;;;;28.69;48.86;96451.69;5026450;28;20554;-60
2022/08/25 09:48:56;;;;;;;31.42;6.38;;;;;;;28.99;47.50;96464.41;5024039;28;20056;-58
2022/08/25 09:51:25;;;;;;;26.67;7.15;;;;;;;29.55;47.17;96467.16;5020844;28;20052;-61
2022/08/25 09:53:52;;;;;;;35.35;7.10;;;;;;;29.48;46.30;96479.03;5038858;28;20049;-57
2022/08/25 09:56:22;;;;;;;33.38;6.32;;;;;;;29.92;45.57;96472.84;5024043;28;20053;-63
2022/08/25 09:58:51;;;;;;;30.90;6.07;;;;;;;28.77;45.16;96284.59;5024490;28;20425;-60
2022/08/25 10:01:21;;;;;;;31.17;7.13;;;;;;;29.60;45.01;96411.38;5026045;28;20117;-66
2022/08/25 10:04:04;;;;;;;23.30;6.68;;;;;;;29.71;45.99;96425.75;5041212;28;20485;-60
2022/08/25 10:06:44;;;;;;;26.42;6.57;;;;;;;29.97;45.85;96469.22;5025788;28;20060;-57
2022/08/25 10:09:22;;;;;;;25.92;6.50;;;;;;;30.10;44.79;96460.94;5025986;28;20494;-58
2022/08/25 10:11:51;;;;;;;22.50;6.53;;;;;;;29.42;45.74;96380.41;5016855;28;20057;-57
2022/08/25 10:14:41;;;;;;;28.23;7.85;;;;;;;30.17;44.95;96451.91;5024346;28;20049;-59
2022/08/25 10:17:25;;;;;;;26.65;6.72;;;;;;;30.55;45.09;96445.53;5025307;28;20500;-60
2022/08/25 10:20:12;;;;;;;39.38;7.43;;;;;;;30.42;43.46;96390.13;5025797;28;20053;-61
2022/08/25 10:22:43;;;;;;;28.35;7.60;;;;;;;31.13;43.23;96442.97;5040699;28;20049;-60
2022/08/25 10:25:15;;;;;;;30.48;6.75;;;;;;;30.51;43.61;96416.41;5024162;28;20483;-61
2022/08/25 10:27:51;;;;;;;24.83;6.13;;;;;;;30.46;43.33;96431.44;5022624;28;20078;-61
2022/08/25 10:31:04;;;;;;;22.70;6.65;;;;;;;29.88;44.85;96402.94;5014802;28;20115;-61
2022/08/25 10:33:56;;;;;;;25.20;6.28;;;;;;;30.10;44.40;96426.66;4963271;28;20085;-63
2022/08/25 10:36:38;;;;;;;21.23;6.57;;;;;;;30.39;44.86;96420.53;4978990;28;20174;-59
2022/08/25 10:39:10;;;;;;;20.23;5.80;;;;;;;29.36;46.89;96371.03;5003110;28;20497;-64
2022/08/25 10:42:09;;;;;;;25.58;7.28;;;;;;;30.21;46.74;96420.25;5003276;28;20049;-59
2022/08/25 10:48:02;;;;;;;23.30;6.30;;;;;;;30.35;45.54;96417.13;5025140;28;20053;-63
2022/08/25 10:50:47;;;;;;;31.23;7.03;;;;;;;30.34;45.30;96407.00;5015271;28;20053;-64
2022/08/25 10:53:17;;;;;;;25.35;6.85;;;;;;;30.35;45.41;96431.44;5025258;28;20132;-61
2022/08/25 10:56:34;;;;;;;22.42;7.28;;;;;;;30.42;44.22;96425.22;5024949;28;20053;-64
2022/08/25 10:59:30;;;;;;;22.80;5.97;;;;;;;30.41;44.89;96417.97;4963973;28;20093;-63
2022/08/25 11:02:32;;;;;;;29.02;6.88;;;;;;;30.57;44.19;96420.03;4963400;28;20050;-60
2022/08/25 11:05:09;;;;;;;28.83;7.97;;;;;;;30.40;45.18;96436.38;5019608;28;20061;-63
2022/08/25 11:08:01;;;;;;;24.55;6.78;;;;;;;30.45;45.34;96432.75;5039687;28;20446;-62
2022/08/25 11:10:39;;;;;;;31.40;7.43;;;;;;;30.07;45.64;96444.06;5025246;28;20049;-61
2022/08/25 11:13:16;;;;;;;31.70;8.95;;;;;;;30.60;45.08;96441.88;5039916;28;20062;-65
2022/08/25 11:15:53;;;;;;;18.95;6.15;;;;;;;30.07;45.52;96433.41;5024587;28;20049;-63
2022/08/25 11:18:54;;;;;;;29.55;7.05;;;;;;;29.87;46.36;96436.47;5036337;28;20056;-60
2022/08/25 11:21:38;;;;;;;25.10;7.45;;;;;;;30.14;45.67;96435.78;5024282;28;20064;-61
2022/08/25 11:24:37;;;;;;;26.02;6.95;;;;;;;29.18;45.21;96251.63;5023308;28;20528;-75
2022/08/25 11:27:12;;;;;;;38.75;7.57;;;;;;;30.33;44.54;96405.47;5003192;28;20158;-63
2022/08/25 11:29:43;;;;;;;21.55;6.70;;;;;;;29.50;46.43;96436.50;5004589;28;20050;-58
2022/08/25 11:32:09;;;;;;;29.83;7.07;;;;;;;29.65;46.15;96370.69;5018404;28;20502;-57
2022/08/25 11:34:36;;;;;;;25.77;6.75;;;;;;;28.97;45.47;96238.81;5024226;28;20064;-61
2022/08/25 11:37:24;;;;;;;21.83;6.30;;;;;;;28.00;45.97;96148.81;5024329;28;20065;-61
2022/08/25 11:40:17;;;;;;;31.38;7.05;;;;;;;30.01;46.16;96434.69;5015890;28;20270;-67
2022/08/25 11:42:50;;;;;;;28.45;6.85;;;;;;;30.21;45.62;96434.53;5023912;28;20053;-62
2022/08/25 11:46:03;;;;;;;27.30;7.00;;;;;;;29.74;46.29;96386.81;5023014;28;20061;-61
2022/08/25 11:48:35;;;;;;;20.50;6.63;;;;;;;29.75;46.58;96434.84;5003030;28;20057;-62
2022/08/25 11:51:06;;;;;;;27.67;6.75;;;;;;;29.22;47.19;96420.50;5023728;28;20057;-63
2022/08/25 11:53:40;;;;;;;21.05;6.07;;;;;;;29.75;46.38;96434.84;5024456;28;20077;-59
2022/08/25 11:56:30;;;;;;;26.88;6.45;;;;;;;29.41;47.30;96450.19;5036760;28;20479;-59
2022/08/25 11:58:58;;;;;;;30.08;7.30;;;;;;;29.00;47.23;96397.50;5024906;28;20053;-58